Terminal Aerodrome Forecast
Issued by NWS

Home | Current Version | Previous Version | Text Only | Print | Product List | Glossary On
Versions: 1 2 3 4 5 6 7 8 9 10 11 12
934
FTUS46 KLOX 172321
TAFSBA
TAF
KSBA 172321Z 1800/1824 24008KT P6SM SKC
     FM180300 VRB03KT P6SM SKC
     FM181000 VRB03KT 3SM BR SCT003
     FM181700 VRB03KT 6SM BR SCT015
     FM182000 26010KT P6SM FEW250=

USA.gov is the U.S. government's official web portal to all federal, state and local government web resources and services.